createdAt,value
2018-07-15T00:00:52.373Z,23.94
2018-07-15T00:01:52.380Z,24.00
2018-07-15T00:02:52.343Z,24.00
2018-07-15T00:03:52.332Z,23.94
2018-07-15T00:04:52.322Z,24.06
2018-07-15T00:05:52.309Z,23.96
2018-07-15T00:06:52.321Z,23.96
2018-07-15T00:07:52.288Z,23.99
2018-07-15T00:08:52.277Z,24.00
2018-07-15T00:09:52.268Z,23.89
2018-07-15T00:10:52.257Z,23.96
2018-07-15T00:11:52.268Z,23.90
2018-07-15T00:12:52.233Z,23.94
2018-07-15T00:13:52.222Z,24.00
2018-07-15T00:14:52.213Z,23.89
2018-07-15T00:15:52.203Z,23.89
2018-07-15T00:16:52.213Z,23.97
2018-07-15T00:17:52.179Z,23.97
2018-07-15T00:18:52.169Z,23.96
2018-07-15T00:19:52.156Z,23.97
2018-07-15T00:20:52.187Z,23.94
2018-07-15T00:21:52.159Z,23.92
2018-07-15T00:22:52.127Z,23.89
2018-07-15T00:23:52.113Z,23.94
2018-07-15T00:24:52.102Z,23.93
2018-07-15T00:25:52.091Z,23.92
2018-07-15T00:26:52.103Z,23.84
2018-07-15T00:27:52.070Z,23.92
2018-07-15T00:28:52.058Z,23.89
2018-07-15T00:29:52.047Z,23.82
2018-07-15T00:30:52.036Z,23.84
2018-07-15T00:31:52.049Z,23.89
2018-07-15T00:32:52.015Z,23.87
2018-07-15T00:33:52.002Z,23.89
2018-07-15T00:34:51.992Z,23.89
2018-07-15T00:35:51.982Z,23.96
2018-07-15T00:36:51.994Z,23.82
2018-07-15T00:37:51.958Z,23.96
2018-07-15T00:38:51.947Z,23.90
2018-07-15T00:39:51.938Z,23.79
2018-07-15T00:40:51.927Z,23.82
2018-07-15T00:41:51.944Z,23.77
2018-07-15T00:42:51.907Z,23.75
2018-07-15T00:43:51.893Z,23.79
2018-07-15T00:44:51.882Z,23.86
2018-07-15T00:45:51.873Z,23.84
2018-07-15T00:46:51.884Z,23.84
2018-07-15T00:47:51.905Z,23.82
2018-07-15T00:48:51.838Z,23.75
2018-07-15T00:49:51.828Z,23.78
2018-07-15T00:50:51.819Z,23.77
2018-07-15T00:51:51.829Z,23.78
2018-07-15T00:52:51.795Z,23.77
2018-07-15T00:53:51.784Z,23.79
2018-07-15T00:54:51.774Z,23.77
2018-07-15T00:55:51.762Z,23.79
2018-07-15T00:56:51.775Z,23.75
2018-07-15T00:57:51.740Z,23.75
2018-07-15T00:58:51.729Z,23.72
2018-07-15T00:59:51.718Z,23.71
2018-07-15T01:00:51.707Z,23.69
2018-07-15T01:01:51.723Z,23.79
2018-07-15T01:02:51.686Z,23.74
2018-07-15T01:03:51.676Z,23.71
2018-07-15T01:04:51.663Z,23.68
2018-07-15T01:05:51.653Z,23.75
2018-07-15T01:06:51.644Z,23.71
2018-07-15T01:07:51.655Z,23.69
2018-07-15T01:08:51.619Z,23.69
2018-07-15T01:09:51.607Z,23.68
2018-07-15T01:10:51.597Z,23.71
2018-07-15T01:11:51.589Z,23.74
2018-07-15T01:12:51.600Z,23.64
2018-07-15T01:13:51.564Z,23.72
2018-07-15T01:14:51.557Z,23.69
2018-07-15T01:15:51.543Z,23.63
2018-07-15T01:16:51.533Z,23.60
2018-07-15T01:17:51.545Z,23.68
2018-07-15T01:18:51.514Z,23.67
2018-07-15T01:19:51.499Z,23.71
2018-07-15T01:20:51.488Z,23.67
2018-07-15T01:21:51.480Z,23.56
2018-07-15T01:22:51.490Z,23.56
2018-07-15T01:23:51.458Z,23.72
2018-07-15T01:24:51.444Z,23.59
2018-07-15T01:25:51.434Z,23.68
2018-07-15T01:26:51.425Z,23.54
2018-07-15T01:27:51.434Z,23.63
2018-07-15T01:28:51.400Z,23.64
2018-07-15T01:29:51.392Z,23.62
2018-07-15T01:30:51.379Z,23.67
2018-07-15T01:31:51.368Z,23.56
2018-07-15T01:32:51.380Z,23.63
2018-07-15T01:33:51.346Z,23.67
2018-07-15T01:34:51.338Z,23.57
2018-07-15T01:35:51.324Z,23.63
2018-07-15T01:36:51.313Z,23.64
2018-07-15T01:37:51.325Z,23.62
2018-07-15T01:38:51.296Z,23.57
2018-07-15T01:39:51.282Z,23.60
2018-07-15T01:40:51.269Z,23.60
2018-07-15T01:41:51.258Z,23.57
2018-07-15T01:42:51.271Z,23.56
2018-07-15T01:43:51.235Z,23.59
2018-07-15T01:44:51.225Z,23.63
2018-07-15T01:45:51.216Z,23.53
2018-07-15T01:46:51.204Z,23.57
2018-07-15T01:47:51.218Z,23.54
2018-07-15T01:48:51.182Z,23.45
2018-07-15T01:49:51.173Z,23.53
2018-07-15T01:50:51.159Z,23.54
2018-07-15T01:51:51.149Z,23.45
2018-07-15T01:52:51.166Z,23.50
2018-07-15T01:53:51.126Z,23.53
2018-07-15T01:54:51.117Z,23.52
2018-07-15T01:55:51.106Z,23.52
2018-07-15T01:56:51.093Z,23.50
2018-07-15T01:57:51.107Z,23.52
2018-07-15T01:58:51.071Z,23.56
2018-07-15T01:59:51.061Z,23.44
2018-07-15T02:00:51.049Z,23.49
2018-07-15T02:01:51.040Z,23.38
2018-07-15T02:02:51.049Z,23.45
2018-07-15T02:03:51.017Z,23.44
2018-07-15T02:04:51.005Z,23.42
2018-07-15T02:05:50.994Z,23.41
2018-07-15T02:06:50.986Z,23.45
2018-07-15T02:07:50.996Z,23.41
2018-07-15T02:08:50.961Z,23.38
2018-07-15T02:09:50.950Z,23.45
2018-07-15T02:10:50.939Z,23.42
2018-07-15T02:11:50.933Z,23.41
2018-07-15T02:12:50.940Z,23.44
2018-07-15T02:13:50.907Z,23.44
2018-07-15T02:14:50.896Z,23.45
2018-07-15T02:15:50.888Z,23.29
2018-07-15T02:16:50.877Z,23.37
2018-07-15T02:17:50.890Z,23.42
2018-07-15T02:18:50.853Z,23.39
2018-07-15T02:19:50.844Z,23.49
2018-07-15T02:20:50.830Z,23.35
2018-07-15T02:21:50.819Z,23.39
2018-07-15T02:22:50.831Z,23.49
2018-07-15T02:23:50.797Z,23.37
2018-07-15T02:24:50.787Z,23.31
2018-07-15T02:25:50.777Z,23.37
2018-07-15T02:26:50.764Z,23.29
2018-07-15T02:27:50.786Z,23.37
2018-07-15T02:28:50.743Z,23.34
2018-07-15T02:29:50.732Z,23.32
2018-07-15T02:30:50.720Z,23.25
2018-07-15T02:31:50.709Z,23.29
2018-07-15T02:32:50.724Z,23.31
2018-07-15T02:33:50.690Z,23.31
2018-07-15T02:34:50.681Z,23.31
2018-07-15T02:35:50.666Z,23.29
2018-07-15T02:36:50.782Z,23.26
2018-07-15T02:37:50.668Z,23.26
2018-07-15T02:38:50.634Z,23.32
2018-07-15T02:39:50.624Z,23.38
2018-07-15T02:40:50.614Z,23.32
2018-07-15T02:41:50.600Z,23.29
2018-07-15T02:42:50.618Z,23.34
2018-07-15T02:43:50.582Z,23.26
2018-07-15T02:44:50.568Z,23.29
2018-07-15T02:45:50.556Z,23.29
2018-07-15T02:46:50.556Z,23.35
2018-07-15T02:47:50.537Z,23.25
2018-07-15T02:48:50.546Z,23.21
2018-07-15T02:49:50.513Z,23.34
2018-07-15T02:50:50.500Z,23.21
2018-07-15T02:51:50.493Z,23.25
2018-07-15T02:52:50.482Z,23.26
2018-07-15T02:53:50.492Z,23.29
2018-07-15T02:54:50.458Z,23.29
2018-07-15T02:55:50.447Z,23.25
2018-07-15T02:56:50.436Z,23.25
2018-07-15T02:57:50.427Z,23.18
2018-07-15T02:58:50.437Z,23.19
2018-07-15T02:59:50.404Z,23.15
2018-07-15T03:00:50.394Z,23.15
2018-07-15T03:01:50.380Z,23.15
2018-07-15T03:02:50.373Z,23.25
2018-07-15T03:03:50.382Z,23.21
2018-07-15T03:04:50.348Z,23.15
2018-07-15T03:05:50.337Z,23.23
2018-07-15T03:06:50.327Z,23.18
2018-07-15T03:07:50.316Z,23.21
2018-07-15T03:08:50.328Z,23.18
2018-07-15T03:09:50.295Z,23.18
2018-07-15T03:10:50.287Z,23.14
2018-07-15T03:11:50.271Z,23.18
2018-07-15T03:12:50.261Z,23.19
2018-07-15T03:13:50.273Z,23.15
2018-07-15T03:14:50.241Z,23.21
2018-07-15T03:15:50.227Z,23.18
2018-07-15T03:16:50.216Z,23.23
2018-07-15T03:17:50.207Z,23.12
2018-07-15T03:18:50.219Z,23.09
2018-07-15T03:19:50.185Z,23.16
2018-07-15T03:20:50.172Z,23.15
2018-07-15T03:21:50.163Z,23.06
2018-07-15T03:22:50.152Z,23.15
2018-07-15T03:23:50.162Z,23.11
2018-07-15T03:24:50.136Z,23.04
2018-07-15T03:25:50.122Z,23.21
2018-07-15T03:26:50.106Z,23.16
2018-07-15T03:27:50.097Z,23.07
2018-07-15T03:28:50.110Z,23.07
2018-07-15T03:29:50.073Z,23.12
2018-07-15T03:30:50.064Z,23.14
2018-07-15T03:31:50.052Z,23.06
2018-07-15T03:32:50.048Z,23.11
2018-07-15T03:33:50.052Z,23.16
2018-07-15T03:34:50.018Z,23.12
2018-07-15T03:35:50.009Z,23.12
2018-07-15T03:36:49.997Z,23.12
2018-07-15T03:37:49.984Z,23.11
2018-07-15T03:38:49.997Z,23.07
2018-07-15T03:39:49.998Z,23.14
2018-07-15T03:40:49.952Z,23.12
2018-07-15T03:41:49.942Z,23.11
2018-07-15T03:42:49.938Z,23.06
2018-07-15T03:43:49.943Z,23.06
2018-07-15T03:44:49.909Z,23.12
2018-07-15T03:45:49.899Z,23.06
2018-07-15T03:46:49.892Z,23.16
2018-07-15T03:47:49.875Z,23.12
2018-07-15T03:48:49.888Z,23.11
2018-07-15T03:49:49.854Z,23.04
2018-07-15T03:50:49.843Z,23.11
2018-07-15T03:51:49.834Z,23.06
2018-07-15T03:52:49.822Z,23.11
2018-07-15T03:53:49.851Z,23.12
2018-07-15T03:54:49.800Z,23.12
2018-07-15T03:55:49.788Z,23.15
2018-07-15T03:56:49.778Z,23.06
2018-07-15T03:57:49.764Z,23.07
2018-07-15T03:58:49.781Z,23.07
2018-07-15T03:59:49.743Z,23.09
2018-07-15T04:00:49.777Z,23.06
2018-07-15T04:01:49.721Z,23.09
2018-07-15T04:02:49.711Z,23.16
2018-07-15T04:03:49.725Z,23.03
2018-07-15T04:04:49.688Z,23.07
2018-07-15T04:05:49.677Z,23.14
2018-07-15T04:06:49.671Z,23.09
2018-07-15T04:07:49.656Z,23.07
2018-07-15T04:08:49.686Z,23.12
2018-07-15T04:09:49.683Z,23.12
2018-07-15T04:10:49.623Z,23.16
2018-07-15T04:11:49.615Z,23.03
2018-07-15T04:12:49.602Z,23.07
2018-07-15T04:13:49.617Z,23.07
2018-07-15T04:14:49.578Z,23.09
2018-07-15T04:15:49.570Z,23.06
2018-07-15T04:16:49.558Z,23.15
2018-07-15T04:17:49.551Z,23.11
2018-07-15T04:18:49.658Z,23.12
2018-07-15T04:19:49.525Z,23.11
2018-07-15T04:20:49.515Z,23.14
2018-07-15T04:21:49.504Z,23.11
2018-07-15T04:22:49.491Z,23.18
2018-07-15T04:23:49.504Z,23.07
2018-07-15T04:24:49.469Z,23.15
2018-07-15T04:25:49.459Z,23.18
2018-07-15T04:26:49.447Z,23.06
2018-07-15T04:27:49.437Z,23.06
2018-07-15T04:28:49.427Z,23.12
2018-07-15T04:29:49.438Z,23.14
2018-07-15T04:30:49.405Z,23.16
2018-07-15T04:31:49.392Z,23.19
2018-07-15T04:32:49.387Z,23.18
2018-07-15T04:33:49.395Z,23.12
2018-07-15T04:34:49.359Z,23.12
2018-07-15T04:35:49.347Z,23.09
2018-07-15T04:36:49.340Z,23.14
2018-07-15T04:37:49.340Z,23.15
2018-07-15T04:38:49.319Z,23.11
2018-07-15T04:39:49.328Z,23.12
2018-07-15T04:40:49.296Z,23.09
2018-07-15T04:41:49.282Z,23.11
2018-07-15T04:42:49.271Z,23.18
2018-07-15T04:43:49.289Z,23.15
2018-07-15T04:44:49.272Z,23.07
2018-07-15T04:45:49.238Z,23.14
2018-07-15T04:46:49.227Z,23.14
2018-07-15T04:47:49.218Z,23.14
2018-07-15T04:48:49.209Z,23.14
2018-07-15T04:49:49.223Z,23.12
2018-07-15T04:50:49.183Z,23.12
2018-07-15T04:51:49.173Z,23.11
2018-07-15T04:52:49.165Z,23.21
2018-07-15T04:53:49.150Z,23.19
2018-07-15T04:54:49.163Z,23.15
2018-07-15T04:55:49.133Z,23.15
2018-07-15T04:56:49.117Z,23.12
2018-07-15T04:57:49.108Z,23.16
2018-07-15T04:58:49.096Z,23.19
2018-07-15T04:59:49.112Z,23.14
2018-07-15T05:00:49.073Z,23.09
2018-07-15T05:01:49.062Z,23.16
2018-07-15T05:02:49.053Z,23.22
2018-07-15T05:03:49.041Z,23.19
2018-07-15T05:04:49.055Z,23.16
2018-07-15T05:05:49.018Z,23.18
2018-07-15T05:06:49.011Z,23.14
2018-07-15T05:07:48.997Z,23.16
2018-07-15T05:08:48.985Z,23.16
2018-07-15T05:09:49.000Z,23.16
2018-07-15T05:10:48.964Z,23.19
2018-07-15T05:11:48.953Z,23.12
2018-07-15T05:12:48.942Z,23.22
2018-07-15T05:13:48.931Z,23.23
2018-07-15T05:14:48.944Z,23.14
2018-07-15T05:15:48.911Z,23.12
2018-07-15T05:16:48.898Z,23.14
2018-07-15T05:17:48.887Z,23.34
2018-07-15T05:18:48.876Z,23.21
2018-07-15T05:19:48.889Z,23.18
2018-07-15T05:20:48.854Z,23.29
2018-07-15T05:21:48.844Z,23.25
2018-07-15T05:22:48.832Z,23.23
2018-07-15T05:23:48.822Z,23.34
2018-07-15T05:24:48.845Z,23.37
2018-07-15T05:25:48.799Z,23.35
2018-07-15T05:26:48.791Z,23.31
2018-07-15T05:27:48.778Z,23.31
2018-07-15T05:28:48.766Z,23.31
2018-07-15T05:29:48.781Z,23.26
2018-07-15T05:30:48.746Z,23.32
2018-07-15T05:31:48.733Z,23.31
2018-07-15T05:32:48.727Z,23.26
2018-07-15T05:33:48.712Z,23.29
2018-07-15T05:34:48.759Z,23.32
2018-07-15T05:35:48.689Z,23.34
2018-07-15T05:36:48.680Z,23.31
2018-07-15T05:37:48.667Z,23.35
2018-07-15T05:38:48.657Z,23.32
2018-07-15T05:39:48.667Z,23.37
2018-07-15T05:40:48.635Z,23.37
2018-07-15T05:41:48.626Z,23.38
2018-07-15T05:42:48.613Z,23.34
2018-07-15T05:43:48.603Z,23.44
2018-07-15T05:44:48.616Z,23.42
2018-07-15T05:45:48.580Z,23.41
2018-07-15T05:46:48.569Z,23.44
2018-07-15T05:47:48.559Z,23.44
2018-07-15T05:48:48.547Z,23.39
2018-07-15T05:49:48.559Z,23.45
2018-07-15T05:50:48.526Z,23.47
2018-07-15T05:51:48.562Z,23.42
2018-07-15T05:52:48.503Z,23.44
2018-07-15T05:53:48.492Z,23.52
2018-07-15T05:54:48.507Z,23.44
2018-07-15T05:55:48.471Z,23.53
2018-07-15T05:56:48.460Z,23.49
2018-07-15T05:57:48.449Z,23.47
2018-07-15T05:58:48.438Z,23.49
2018-07-15T05:59:48.450Z,23.52
2018-07-15T06:00:48.419Z,23.54
2018-07-15T06:01:48.405Z,23.57
2018-07-15T06:02:48.393Z,23.57
2018-07-15T06:03:48.383Z,23.57
2018-07-15T06:04:48.395Z,23.59
2018-07-15T06:05:48.360Z,23.57
2018-07-15T06:06:48.351Z,23.59
2018-07-15T06:07:48.344Z,23.60
2018-07-15T06:08:48.328Z,23.60
2018-07-15T06:09:48.341Z,23.60
2018-07-15T06:10:48.314Z,23.67
2018-07-15T06:11:48.295Z,23.63
2018-07-15T06:12:48.285Z,23.62
2018-07-15T06:13:48.273Z,23.64
2018-07-15T06:14:48.264Z,23.67
2018-07-15T06:15:48.275Z,23.64
2018-07-15T06:16:48.240Z,23.69
2018-07-15T06:17:48.229Z,23.64
2018-07-15T06:18:48.219Z,23.64
2018-07-15T06:19:48.215Z,23.69
2018-07-15T06:20:48.219Z,23.72
2018-07-15T06:21:48.186Z,23.74
2018-07-15T06:22:48.198Z,23.72
2018-07-15T06:23:48.165Z,23.72
2018-07-15T06:24:48.156Z,23.79
2018-07-15T06:25:48.164Z,23.75
2018-07-15T06:26:48.130Z,23.81
2018-07-15T06:27:48.121Z,23.79
2018-07-15T06:28:48.108Z,23.77
2018-07-15T06:29:48.099Z,23.86
2018-07-15T06:30:48.108Z,23.81
2018-07-15T06:31:48.131Z,23.82
2018-07-15T06:32:48.064Z,23.86
2018-07-15T06:33:48.053Z,23.84
2018-07-15T06:34:48.043Z,23.82
2018-07-15T06:35:48.055Z,23.89
2018-07-15T06:36:48.022Z,23.89
2018-07-15T06:37:48.009Z,23.89
2018-07-15T06:38:47.998Z,23.82
2018-07-15T06:39:47.989Z,23.87
2018-07-15T06:40:47.999Z,23.82
2018-07-15T06:41:47.965Z,23.84
2018-07-15T06:42:47.955Z,23.97
2018-07-15T06:43:47.944Z,23.89
2018-07-15T06:44:47.932Z,23.89
2018-07-15T06:45:47.947Z,23.94
2018-07-15T06:46:47.910Z,23.97
2018-07-15T06:47:47.900Z,23.84
2018-07-15T06:48:47.888Z,23.96
2018-07-15T06:49:47.877Z,24.05
2018-07-15T06:50:47.890Z,23.90
2018-07-15T06:51:47.855Z,23.99
2018-07-15T06:52:47.844Z,23.96
2018-07-15T06:53:47.865Z,24.02
2018-07-15T06:54:47.822Z,23.99
2018-07-15T06:55:47.885Z,24.04
2018-07-15T06:56:47.800Z,24.00
2018-07-15T06:57:47.788Z,24.04
2018-07-15T06:58:47.779Z,24.00
2018-07-15T06:59:47.767Z,24.06
2018-07-15T07:00:47.779Z,24.06
2018-07-15T07:01:47.746Z,24.08
2018-07-15T07:02:47.733Z,24.08
2018-07-15T07:03:47.724Z,24.05
2018-07-15T07:04:47.711Z,24.08
2018-07-15T07:05:47.724Z,24.14
2018-07-15T07:06:47.692Z,24.15
2018-07-15T07:07:47.694Z,24.15
2018-07-15T07:08:47.670Z,24.11
2018-07-15T07:09:47.657Z,24.16
2018-07-15T07:10:47.669Z,24.15
2018-07-15T07:11:47.643Z,24.15
2018-07-15T07:12:47.626Z,24.14
2018-07-15T07:13:47.613Z,24.14
2018-07-15T07:14:47.604Z,24.21
2018-07-15T07:15:47.615Z,24.16
2018-07-15T07:16:47.581Z,24.27
2018-07-15T07:17:47.570Z,24.18
2018-07-15T07:18:47.559Z,24.31
2018-07-15T07:19:47.548Z,24.29
2018-07-15T07:20:47.561Z,24.31
2018-07-15T07:21:47.528Z,24.27
2018-07-15T07:22:47.517Z,24.27
2018-07-15T07:23:47.506Z,24.29
2018-07-15T07:24:47.493Z,24.30
2018-07-15T07:25:47.506Z,24.29
2018-07-15T07:26:47.471Z,24.31
2018-07-15T07:27:47.461Z,24.30
2018-07-15T07:28:47.463Z,24.29
2018-07-15T07:29:47.438Z,24.30
2018-07-15T07:30:47.451Z,24.30
2018-07-15T07:31:47.416Z,24.27
2018-07-15T07:32:47.405Z,24.33
2018-07-15T07:33:47.395Z,24.30
2018-07-15T07:34:47.383Z,24.41
2018-07-15T07:35:47.395Z,24.36
2018-07-15T07:36:47.360Z,24.39
2018-07-15T07:37:47.350Z,24.45
2018-07-15T07:38:47.353Z,24.37
2018-07-15T07:39:47.332Z,24.39
2018-07-15T07:40:47.341Z,24.42
2018-07-15T07:41:47.309Z,24.46
2018-07-15T07:42:47.295Z,24.42
2018-07-15T07:43:47.285Z,24.45
2018-07-15T07:44:47.277Z,24.45
2018-07-15T07:45:47.286Z,24.45
2018-07-15T07:46:47.260Z,24.49
2018-07-15T07:47:47.242Z,24.48
2018-07-15T07:48:47.229Z,24.45
2018-07-15T07:49:47.219Z,24.42
2018-07-15T07:50:47.210Z,24.48
2018-07-15T07:51:47.220Z,24.49
2018-07-15T07:52:47.185Z,24.59
2018-07-15T07:53:47.175Z,24.52
2018-07-15T07:54:47.164Z,24.51
2018-07-15T07:55:47.155Z,24.52
2018-07-15T07:56:47.167Z,24.53
2018-07-15T07:57:47.132Z,24.55
2018-07-15T07:58:47.120Z,24.55
2018-07-15T07:59:47.110Z,24.59
2018-07-15T08:00:47.101Z,24.59
2018-07-15T08:01:47.110Z,24.56
2018-07-15T08:02:47.076Z,24.68
2018-07-15T08:03:47.066Z,24.56
2018-07-15T08:04:47.054Z,24.61
2018-07-15T08:05:47.046Z,24.61
2018-07-15T08:06:47.057Z,24.63
2018-07-15T08:07:47.027Z,24.64
2018-07-15T08:08:47.067Z,24.63
2018-07-15T08:09:47.000Z,24.61
2018-07-15T08:10:46.990Z,24.66
2018-07-15T08:11:47.001Z,24.61
2018-07-15T08:12:46.967Z,24.67
2018-07-15T08:13:46.956Z,24.67
2018-07-15T08:14:46.947Z,24.64
2018-07-15T08:15:46.933Z,24.70
2018-07-15T08:16:46.948Z,24.74
2018-07-15T08:17:46.917Z,24.75
2018-07-15T08:18:46.901Z,24.68
2018-07-15T08:19:46.890Z,24.70
2018-07-15T08:20:46.878Z,24.79
2018-07-15T08:21:46.891Z,24.68
2018-07-15T08:22:46.857Z,24.77
2018-07-15T08:23:46.849Z,24.82
2018-07-15T08:24:46.839Z,24.80
2018-07-15T08:25:46.827Z,24.80
2018-07-15T08:26:46.836Z,24.75
2018-07-15T08:27:46.802Z,24.82
2018-07-15T08:28:46.791Z,24.74
2018-07-15T08:29:46.781Z,24.77
2018-07-15T08:30:46.770Z,24.77
2018-07-15T08:31:46.782Z,24.77
2018-07-15T08:32:46.749Z,24.77
2018-07-15T08:33:46.736Z,24.75
2018-07-15T08:34:46.730Z,24.80
2018-07-15T08:35:46.714Z,24.84
2018-07-15T08:36:46.730Z,24.77
2018-07-15T08:37:46.693Z,24.79
2018-07-15T08:38:46.681Z,24.83
2018-07-15T08:39:46.671Z,24.87
2018-07-15T08:40:46.799Z,24.77
2018-07-15T08:41:46.677Z,24.87
2018-07-15T08:42:46.638Z,24.77
2018-07-15T08:43:46.627Z,24.83
2018-07-15T08:44:46.617Z,24.80
2018-07-15T08:45:46.605Z,24.84
2018-07-15T08:46:46.618Z,24.84
2018-07-15T08:47:46.585Z,24.83
2018-07-15T08:48:46.573Z,24.87
2018-07-15T08:49:46.565Z,24.84
2018-07-15T08:50:46.553Z,24.87
2018-07-15T08:51:46.564Z,24.82
2018-07-15T08:52:46.534Z,24.87
2018-07-15T08:53:46.518Z,24.75
2018-07-15T08:54:46.561Z,24.86
2018-07-15T08:55:46.496Z,24.79
2018-07-15T08:56:46.509Z,24.90
2018-07-15T08:57:46.474Z,24.89
2018-07-15T08:58:46.463Z,24.80
2018-07-15T08:59:46.453Z,24.90
2018-07-15T09:00:46.441Z,24.89
2018-07-15T09:01:46.457Z,24.86
2018-07-15T09:02:46.419Z,24.87
2018-07-15T09:03:46.407Z,24.84
2018-07-15T09:04:46.398Z,24.86
2018-07-15T09:05:46.386Z,24.94
2018-07-15T09:06:46.398Z,24.90
2018-07-15T09:07:46.364Z,24.92
2018-07-15T09:08:46.355Z,24.98
2018-07-15T09:09:46.343Z,24.90
2018-07-15T09:10:46.332Z,24.89
2018-07-15T09:11:46.346Z,24.92
2018-07-15T09:12:46.392Z,24.89
2018-07-15T09:13:46.300Z,24.99
2018-07-15T09:14:46.287Z,24.94
2018-07-15T09:15:46.279Z,24.90
2018-07-15T09:16:46.289Z,24.94
2018-07-15T09:17:46.256Z,24.97
2018-07-15T09:18:46.246Z,24.94
2018-07-15T09:19:46.233Z,24.94
2018-07-15T09:20:46.223Z,24.93
2018-07-15T09:21:46.240Z,24.89
2018-07-15T09:22:46.201Z,24.92
2018-07-15T09:23:46.188Z,24.93
2018-07-15T09:24:46.178Z,24.94
2018-07-15T09:25:46.168Z,24.92
2018-07-15T09:26:46.182Z,24.97
2018-07-15T09:27:46.205Z,24.92
2018-07-15T09:28:46.134Z,24.92
2018-07-15T09:29:46.124Z,24.90
2018-07-15T09:30:46.114Z,25.04
2018-07-15T09:31:46.125Z,25.02
2018-07-15T09:32:46.092Z,25.04
2018-07-15T09:33:46.080Z,25.01
2018-07-15T09:34:46.068Z,24.90
2018-07-15T09:35:46.059Z,25.05
2018-07-15T09:36:46.048Z,25.05
2018-07-15T09:37:46.060Z,24.98
2018-07-15T09:38:46.025Z,25.02
2018-07-15T09:39:46.014Z,24.90
2018-07-15T09:40:46.007Z,24.98
2018-07-15T09:41:45.993Z,25.04
2018-07-15T09:42:46.004Z,24.99
2018-07-15T09:43:45.970Z,25.07
2018-07-15T09:44:45.960Z,25.07
2018-07-15T09:45:45.948Z,25.11
2018-07-15T09:46:45.941Z,25.08
2018-07-15T09:47:45.951Z,25.01
2018-07-15T09:48:45.915Z,25.04
2018-07-15T09:49:45.904Z,25.04
2018-07-15T09:50:45.893Z,25.02
2018-07-15T09:51:45.884Z,25.09
2018-07-15T09:52:45.896Z,25.11
2018-07-15T09:53:45.861Z,25.05
2018-07-15T09:54:45.857Z,25.09
2018-07-15T09:55:45.839Z,25.14
2018-07-15T09:56:45.828Z,25.05
2018-07-15T09:57:45.840Z,25.07
2018-07-15T09:58:45.805Z,25.09
2018-07-15T09:59:45.797Z,25.05
2018-07-15T10:00:45.784Z,25.11
2018-07-15T10:01:45.772Z,25.11
2018-07-15T10:02:45.785Z,25.07
2018-07-15T10:03:45.750Z,25.04
2018-07-15T10:04:45.806Z,25.09
2018-07-15T10:05:45.728Z,25.14
2018-07-15T10:06:45.717Z,25.14
2018-07-15T10:07:45.730Z,25.14
2018-07-15T10:08:45.696Z,25.14
2018-07-15T10:09:45.686Z,25.14
2018-07-15T10:10:45.674Z,25.17
2018-07-15T10:11:45.663Z,25.14
2018-07-15T10:12:45.675Z,25.16
2018-07-15T10:13:45.640Z,25.14
2018-07-15T10:14:45.628Z,25.14
2018-07-15T10:15:45.619Z,25.12
2018-07-15T10:16:45.606Z,25.12
2018-07-15T10:17:45.619Z,25.16
2018-07-15T10:18:45.585Z,25.16
2018-07-15T10:19:45.573Z,25.16
2018-07-15T10:20:45.563Z,25.22
2018-07-15T10:21:45.553Z,25.19
2018-07-15T10:22:45.564Z,25.14
2018-07-15T10:23:45.530Z,25.16
2018-07-15T10:24:45.517Z,25.22
2018-07-15T10:25:45.508Z,25.17
2018-07-15T10:26:45.628Z,25.22
2018-07-15T10:27:45.507Z,25.26
2018-07-15T10:28:45.476Z,25.22
2018-07-15T10:29:45.463Z,25.29
2018-07-15T10:30:45.451Z,25.20
2018-07-15T10:31:45.441Z,25.23
2018-07-15T10:32:45.455Z,25.26
2018-07-15T10:33:45.418Z,25.26
2018-07-15T10:34:45.409Z,25.20
2018-07-15T10:35:45.398Z,25.29
2018-07-15T10:36:45.386Z,25.26
2018-07-15T10:37:45.397Z,25.30
2018-07-15T10:38:45.364Z,25.26
2018-07-15T10:39:45.355Z,25.30
2018-07-15T10:40:45.341Z,25.24
2018-07-15T10:41:45.330Z,25.26
2018-07-15T10:42:45.342Z,25.26
2018-07-15T10:43:45.311Z,25.30
2018-07-15T10:44:45.296Z,25.30
2018-07-15T10:45:45.290Z,25.30
2018-07-15T10:46:45.280Z,25.27
2018-07-15T10:47:45.287Z,25.30
2018-07-15T10:48:45.255Z,25.26
2018-07-15T10:49:45.240Z,25.31
2018-07-15T10:50:45.230Z,25.29
2018-07-15T10:51:45.218Z,25.34
2018-07-15T10:52:45.250Z,25.31
2018-07-15T10:53:45.196Z,25.34
2018-07-15T10:54:45.186Z,25.34
2018-07-15T10:55:45.191Z,25.36
2018-07-15T10:56:45.163Z,25.35
2018-07-15T10:57:45.175Z,25.34
2018-07-15T10:58:45.141Z,25.36
2018-07-15T10:59:45.130Z,25.35
2018-07-15T11:00:45.118Z,25.35
2018-07-15T11:01:45.112Z,25.36
2018-07-15T11:02:45.104Z,25.34
2018-07-15T11:03:45.111Z,25.38
2018-07-15T11:04:45.078Z,25.31
2018-07-15T11:05:45.065Z,25.38
2018-07-15T11:06:45.053Z,25.41
2018-07-15T11:07:45.046Z,25.39
2018-07-15T11:08:45.054Z,25.30
2018-07-15T11:09:45.026Z,25.38
2018-07-15T11:10:45.008Z,25.36
2018-07-15T11:11:44.998Z,25.35
2018-07-15T11:12:44.987Z,25.41
2018-07-15T11:13:44.997Z,25.41
2018-07-15T11:14:44.985Z,25.35
2018-07-15T11:15:44.956Z,25.31
2018-07-15T11:16:44.942Z,25.41
2018-07-15T11:17:44.932Z,25.41
2018-07-15T11:18:44.943Z,25.39
2018-07-15T11:19:44.909Z,25.39
2018-07-15T11:20:44.897Z,25.38
2018-07-15T11:21:44.886Z,25.45
2018-07-15T11:22:44.876Z,25.48
2018-07-15T11:23:44.888Z,25.38
2018-07-15T11:24:44.856Z,25.46
2018-07-15T11:25:44.842Z,25.44
2018-07-15T11:26:44.831Z,25.41
2018-07-15T11:27:44.820Z,25.39
2018-07-15T11:28:44.833Z,25.48
2018-07-15T11:29:44.800Z,25.41
2018-07-15T11:30:44.830Z,25.42
2018-07-15T11:31:44.777Z,25.42
2018-07-15T11:32:44.766Z,25.49
2018-07-15T11:33:44.778Z,25.48
2018-07-15T11:34:44.744Z,25.48
2018-07-15T11:35:44.733Z,25.57
2018-07-15T11:36:44.722Z,25.49
2018-07-15T11:37:44.711Z,25.56
2018-07-15T11:38:44.737Z,25.48
2018-07-15T11:39:44.690Z,25.51
2018-07-15T11:40:44.678Z,25.54
2018-07-15T11:41:44.668Z,25.61
2018-07-15T11:42:44.657Z,25.51
2018-07-15T11:43:44.646Z,25.56
2018-07-15T11:44:44.658Z,25.61
2018-07-15T11:45:44.624Z,25.54
2018-07-15T11:46:44.613Z,25.57
2018-07-15T11:47:44.602Z,25.51
2018-07-15T11:48:44.591Z,25.63
2018-07-15T11:49:44.609Z,25.54
2018-07-15T11:50:44.574Z,25.60
2018-07-15T11:51:44.557Z,25.61
2018-07-15T11:52:44.547Z,25.54
2018-07-15T11:53:44.536Z,25.66
2018-07-15T11:54:44.548Z,25.72
2018-07-15T11:55:44.514Z,25.64
2018-07-15T11:56:44.503Z,25.64
2018-07-15T11:57:44.492Z,25.66
2018-07-15T11:58:44.481Z,25.67
2018-07-15T11:59:44.495Z,25.64
2018-07-15T12:00:44.459Z,25.71
2018-07-15T12:01:44.541Z,25.72
2018-07-15T12:02:44.437Z,25.75
2018-07-15T12:03:44.426Z,25.74
2018-07-15T12:04:44.438Z,25.71
2018-07-15T12:05:44.403Z,25.74
2018-07-15T12:06:44.392Z,25.64
2018-07-15T12:07:44.382Z,25.74
2018-07-15T12:08:44.372Z,25.71
2018-07-15T12:09:44.386Z,25.71
2018-07-15T12:10:44.349Z,25.69
2018-07-15T12:11:44.338Z,25.69
2018-07-15T12:12:44.328Z,25.83
2018-07-15T12:13:44.317Z,25.75
2018-07-15T12:14:44.330Z,25.82
2018-07-15T12:15:44.296Z,25.82
2018-07-15T12:16:44.283Z,25.83
2018-07-15T12:17:44.274Z,25.85
2018-07-15T12:18:44.263Z,25.79
2018-07-15T12:19:44.276Z,25.89
2018-07-15T12:20:44.243Z,25.90
2018-07-15T12:21:44.230Z,25.97
2018-07-15T12:22:44.218Z,25.98
2018-07-15T12:23:44.207Z,26.09
2018-07-15T12:24:44.219Z,26.00
2018-07-15T12:25:44.188Z,26.01
2018-07-15T12:26:44.176Z,26.09
2018-07-15T12:27:44.169Z,26.04
2018-07-15T12:28:44.156Z,26.11
2018-07-15T12:29:44.165Z,26.17
2018-07-15T12:30:44.131Z,26.20
2018-07-15T12:31:44.120Z,26.21
2018-07-15T12:32:44.111Z,26.34
2018-07-15T12:33:44.097Z,26.29
2018-07-15T12:34:44.109Z,26.29
2018-07-15T12:35:44.076Z,26.39
2018-07-15T12:36:44.065Z,26.38
2018-07-15T12:37:44.054Z,26.38
2018-07-15T12:38:44.043Z,26.42
2018-07-15T12:39:44.061Z,26.57
2018-07-15T12:40:44.023Z,26.59
2018-07-15T12:41:44.013Z,26.71
2018-07-15T12:42:44.000Z,26.69
2018-07-15T12:43:43.990Z,26.68
2018-07-15T12:44:44.004Z,26.71
2018-07-15T12:45:43.969Z,26.90
2018-07-15T12:46:43.957Z,26.81
2018-07-15T12:47:43.947Z,26.90
2018-07-15T12:48:43.935Z,26.93
2018-07-15T12:49:43.927Z,27.01
2018-07-15T12:50:43.938Z,26.96
2018-07-15T12:51:43.903Z,27.16
2018-07-15T12:52:43.893Z,27.25